Portada
METAR-TAF:

METAR-TAF

Aeroports :

Marsa Alam, Egipte

latitud: 25-33-25N, longitud: 34-35-01E, altitud: 77 m

Observació

L'informe es va fer fa 3 hores i 58 minuts, a les 13:00 UTC
Vent 15 kt del Nord/Nord-Oest
Temperatura 27°C
Humitat 45%
Pressió 1015 hPa
Visibilitat 10 km o més
sense núvols per sota de 1500 mi sense presència de cumulonimbus.

METAR: HEMA 271300Z 34015KT CAVOK 27/14 Q1015 NOSIG

Hora: 18:58 (16:58 UTC)

Pronòstic

L'informe es va fer fa 5 hores i 58 minuts, a les 11:00 UTC
Pronòstic vàlid del 27 a les 12 UTC al 28 a les 18 UTC
Vent 15 kt del Nord
Visibilitat 10 km o més
sense núvols per sota de 1500 mi sense presència de cumulonimbus.

TAF: HEMA 271100Z 2712/2818 36015KT CAVOK

Observacions i pronòstics meteorològics de més de 4000 aeroports (METAR i TAF).

Les estacions disponibles són els punts grocs i vermells al mapa.

Posi el ratolí al punt desitjat per veure el nom de l'estació.

Feu clic per veure les observacions i els pronòstics meteorològics.

Per canviar el mapa: feu clic els botons verds amb una creu de color negre per apropar; al botó verd amb un guió per allunyar la imatge; o en les fletxes verdes per a mapes adjacents.


METAR-TAF: